sensor_id;sensor_type;location;lat;lon;timestamp;P1;durP1;ratioP1;P2;durP2;ratioP2
9218;SDS011;4644;48.858;9.184;2022-12-07T00:02:14;7.33;;;6.57;;
9218;SDS011;4644;48.858;9.184;2022-12-07T00:04:41;9.03;;;6.60;;
9218;SDS011;4644;48.858;9.184;2022-12-07T00:07:08;7.30;;;6.60;;
9218;SDS011;4644;48.858;9.184;2022-12-07T00:09:35;8.30;;;6.93;;
9218;SDS011;4644;48.858;9.184;2022-12-07T00:12:02;9.33;;;7.00;;
9218;SDS011;4644;48.858;9.184;2022-12-07T00:14:29;8.10;;;7.03;;
9218;SDS011;4644;48.858;9.184;2022-12-07T00:16:58;8.53;;;7.03;;
9218;SDS011;4644;48.858;9.184;2022-12-07T00:19:25;8.87;;;7.23;;
9218;SDS011;4644;48.858;9.184;2022-12-07T00:21:52;10.50;;;7.00;;
9218;SDS011;4644;48.858;9.184;2022-12-07T00:24:19;9.87;;;7.57;;
9218;SDS011;4644;48.858;9.184;2022-12-07T00:26:46;9.37;;;7.03;;
9218;SDS011;4644;48.858;9.184;2022-12-07T00:29:15;11.00;;;7.80;;
9218;SDS011;4644;48.858;9.184;2022-12-07T00:31:43;8.67;;;7.23;;
9218;SDS011;4644;48.858;9.184;2022-12-07T00:34:13;9.10;;;7.50;;
9218;SDS011;4644;48.858;9.184;2022-12-07T00:36:45;8.53;;;7.03;;
9218;SDS011;4644;48.858;9.184;2022-12-07T00:39:16;9.50;;;7.50;;
9218;SDS011;4644;48.858;9.184;2022-12-07T00:41:43;8.70;;;7.07;;
9218;SDS011;4644;48.858;9.184;2022-12-07T00:44:10;9.33;;;7.47;;
9218;SDS011;4644;48.858;9.184;2022-12-07T00:46:37;10.90;;;7.27;;
9218;SDS011;4644;48.858;9.184;2022-12-07T00:49:04;12.10;;;7.23;;
9218;SDS011;4644;48.858;9.184;2022-12-07T00:51:33;10.33;;;6.83;;
9218;SDS011;4644;48.858;9.184;2022-12-07T00:54:02;12.17;;;7.27;;
9218;SDS011;4644;48.858;9.184;2022-12-07T00:56:29;9.57;;;6.90;;
9218;SDS011;4644;48.858;9.184;2022-12-07T00:58:56;9.57;;;7.80;;
9218;SDS011;4644;48.858;9.184;2022-12-07T01:01:25;9.57;;;7.20;;
9218;SDS011;4644;48.858;9.184;2022-12-07T01:03:54;7.83;;;6.80;;
9218;SDS011;4644;48.858;9.184;2022-12-07T01:06:22;10.20;;;7.80;;
9218;SDS011;4644;48.858;9.184;2022-12-07T01:08:51;9.57;;;7.47;;
9218;SDS011;4644;48.858;9.184;2022-12-07T01:11:19;9.90;;;7.57;;
9218;SDS011;4644;48.858;9.184;2022-12-07T01:13:49;10.30;;;7.43;;
9218;SDS011;4644;48.858;9.184;2022-12-07T01:16:16;9.80;;;7.30;;
9218;SDS011;4644;48.858;9.184;2022-12-07T01:18:45;9.17;;;7.53;;
9218;SDS011;4644;48.858;9.184;2022-12-07T01:21:15;10.07;;;7.43;;
9218;SDS011;4644;48.858;9.184;2022-12-07T01:23:43;10.13;;;7.30;;
9218;SDS011;4644;48.858;9.184;2022-12-07T01:26:12;9.33;;;6.80;;
9218;SDS011;4644;48.858;9.184;2022-12-07T01:28:41;9.57;;;7.37;;
9218;SDS011;4644;48.858;9.184;2022-12-07T01:31:09;8.40;;;6.73;;
9218;SDS011;4644;48.858;9.184;2022-12-07T01:33:40;9.23;;;7.23;;
9218;SDS011;4644;48.858;9.184;2022-12-07T01:36:08;9.63;;;7.13;;
9218;SDS011;4644;48.858;9.184;2022-12-07T01:38:39;8.87;;;7.10;;
9218;SDS011;4644;48.858;9.184;2022-12-07T01:41:07;11.57;;;6.93;;
9218;SDS011;4644;48.858;9.184;2022-12-07T01:43:35;9.23;;;6.63;;
9218;SDS011;4644;48.858;9.184;2022-12-07T01:46:03;8.93;;;7.33;;
9218;SDS011;4644;48.858;9.184;2022-12-07T01:48:31;9.47;;;7.27;;
9218;SDS011;4644;48.858;9.184;2022-12-07T01:51:01;14.70;;;8.10;;
9218;SDS011;4644;48.858;9.184;2022-12-07T01:53:32;8.90;;;6.70;;
9218;SDS011;4644;48.858;9.184;2022-12-07T01:56:02;9.23;;;7.37;;
9218;SDS011;4644;48.858;9.184;2022-12-07T01:58:29;9.70;;;7.53;;
9218;SDS011;4644;48.858;9.184;2022-12-07T02:00:58;9.73;;;7.23;;
9218;SDS011;4644;48.858;9.184;2022-12-07T02:03:25;9.93;;;7.33;;
9218;SDS011;4644;48.858;9.184;2022-12-07T02:05:56;9.17;;;7.53;;
9218;SDS011;4644;48.858;9.184;2022-12-07T02:08:24;11.43;;;6.83;;
9218;SDS011;4644;48.858;9.184;2022-12-07T02:10:52;10.70;;;7.70;;
9218;SDS011;4644;48.858;9.184;2022-12-07T02:13:19;9.37;;;7.07;;
9218;SDS011;4644;48.858;9.184;2022-12-07T02:16:03;9.10;;;6.83;;
9218;SDS011;4644;48.858;9.184;2022-12-07T02:18:48;10.97;;;7.47;;
9218;SDS011;4644;48.858;9.184;2022-12-07T02:21:37;9.27;;;7.43;;
9218;SDS011;4644;48.858;9.184;2022-12-07T02:24:14;10.70;;;7.17;;
9218;SDS011;4644;48.858;9.184;2022-12-07T02:30:03;9.50;;;7.43;;
9218;SDS011;4644;48.858;9.184;2022-12-07T02:32:35;9.33;;;7.20;;
9218;SDS011;4644;48.858;9.184;2022-12-07T02:35:11;9.10;;;7.47;;
9218;SDS011;4644;48.858;9.184;2022-12-07T02:37:46;9.50;;;6.70;;
9218;SDS011;4644;48.858;9.184;2022-12-07T02:40:21;9.07;;;7.07;;
9218;SDS011;4644;48.858;9.184;2022-12-07T02:42:53;8.03;;;6.77;;
9218;SDS011;4644;48.858;9.184;2022-12-07T02:45:26;9.40;;;6.80;;
9218;SDS011;4644;48.858;9.184;2022-12-07T02:47:56;9.50;;;6.93;;
9218;SDS011;4644;48.858;9.184;2022-12-07T02:50:25;10.23;;;7.20;;
9218;SDS011;4644;48.858;9.184;2022-12-07T02:52:53;10.50;;;7.03;;
9218;SDS011;4644;48.858;9.184;2022-12-07T02:55:21;10.17;;;7.07;;
9218;SDS011;4644;48.858;9.184;2022-12-07T02:57:55;9.10;;;7.13;;
9218;SDS011;4644;48.858;9.184;2022-12-07T03:00:54;9.53;;;7.07;;
9218;SDS011;4644;48.858;9.184;2022-12-07T03:03:31;9.33;;;6.90;;
9218;SDS011;4644;48.858;9.184;2022-12-07T03:06:02;9.57;;;7.10;;
9218;SDS011;4644;48.858;9.184;2022-12-07T03:08:39;8.27;;;6.17;;
9218;SDS011;4644;48.858;9.184;2022-12-07T03:11:13;9.43;;;6.97;;
9218;SDS011;4644;48.858;9.184;2022-12-07T03:13:45;8.27;;;6.37;;
9218;SDS011;4644;48.858;9.184;2022-12-07T03:16:17;8.13;;;6.80;;
9218;SDS011;4644;48.858;9.184;2022-12-07T03:18:47;11.10;;;7.07;;
9218;SDS011;4644;48.858;9.184;2022-12-07T03:21:17;7.87;;;6.30;;
9218;SDS011;4644;48.858;9.184;2022-12-07T03:23:48;7.80;;;6.23;;
9218;SDS011;4644;48.858;9.184;2022-12-07T03:26:18;10.97;;;6.63;;
9218;SDS011;4644;48.858;9.184;2022-12-07T03:28:49;9.17;;;6.70;;
9218;SDS011;4644;48.858;9.184;2022-12-07T03:31:22;7.90;;;6.50;;
9218;SDS011;4644;48.858;9.184;2022-12-07T03:33:53;11.63;;;6.73;;
9218;SDS011;4644;48.858;9.184;2022-12-07T03:36:27;7.70;;;6.13;;
9218;SDS011;4644;48.858;9.184;2022-12-07T03:39:00;8.33;;;6.90;;
9218;SDS011;4644;48.858;9.184;2022-12-07T03:41:35;9.00;;;6.50;;
9218;SDS011;4644;48.858;9.184;2022-12-07T03:44:04;9.43;;;6.43;;
9218;SDS011;4644;48.858;9.184;2022-12-07T03:46:36;9.87;;;6.83;;
9218;SDS011;4644;48.858;9.184;2022-12-07T03:49:11;8.90;;;6.93;;
9218;SDS011;4644;48.858;9.184;2022-12-07T03:51:45;7.87;;;6.70;;
9218;SDS011;4644;48.858;9.184;2022-12-07T03:54:19;9.63;;;7.03;;
9218;SDS011;4644;48.858;9.184;2022-12-07T03:56:48;8.17;;;6.70;;
9218;SDS011;4644;48.858;9.184;2022-12-07T03:59:15;7.17;;;6.07;;
9218;SDS011;4644;48.858;9.184;2022-12-07T04:01:51;9.23;;;6.90;;
9218;SDS011;4644;48.858;9.184;2022-12-07T04:04:20;9.57;;;7.27;;
9218;SDS011;4644;48.858;9.184;2022-12-07T04:06:47;8.43;;;7.07;;
9218;SDS011;4644;48.858;9.184;2022-12-07T04:09:14;8.23;;;6.87;;
9218;SDS011;4644;48.858;9.184;2022-12-07T04:11:41;10.20;;;7.93;;
9218;SDS011;4644;48.858;9.184;2022-12-07T04:14:08;9.50;;;7.57;;
9218;SDS011;4644;48.858;9.184;2022-12-07T04:16:46;12.47;;;7.90;;
9218;SDS011;4644;48.858;9.184;2022-12-07T04:19:13;11.40;;;8.10;;
9218;SDS011;4644;48.858;9.184;2022-12-07T04:21:41;8.67;;;7.00;;
9218;SDS011;4644;48.858;9.184;2022-12-07T04:24:08;11.10;;;8.33;;
9218;SDS011;4644;48.858;9.184;2022-12-07T04:26:35;11.50;;;7.83;;
9218;SDS011;4644;48.858;9.184;2022-12-07T04:29:02;11.27;;;7.70;;
9218;SDS011;4644;48.858;9.184;2022-12-07T04:31:29;11.57;;;8.33;;
9218;SDS011;4644;48.858;9.184;2022-12-07T04:33:57;13.13;;;8.00;;
9218;SDS011;4644;48.858;9.184;2022-12-07T04:36:24;10.07;;;7.80;;
9218;SDS011;4644;48.858;9.184;2022-12-07T04:38:52;10.03;;;7.73;;
9218;SDS011;4644;48.858;9.184;2022-12-07T04:41:21;11.07;;;7.93;;
9218;SDS011;4644;48.858;9.184;2022-12-07T04:43:52;9.17;;;7.10;;
9218;SDS011;4644;48.858;9.184;2022-12-07T04:46:21;11.37;;;7.50;;
9218;SDS011;4644;48.858;9.184;2022-12-07T04:48:48;8.83;;;6.30;;
9218;SDS011;4644;48.858;9.184;2022-12-07T04:51:18;9.47;;;7.57;;
9218;SDS011;4644;48.858;9.184;2022-12-07T04:53:46;10.10;;;7.47;;
9218;SDS011;4644;48.858;9.184;2022-12-07T04:56:14;9.33;;;7.23;;
9218;SDS011;4644;48.858;9.184;2022-12-07T04:58:41;9.50;;;6.70;;
9218;SDS011;4644;48.858;9.184;2022-12-07T05:01:08;10.20;;;7.73;;
9218;SDS011;4644;48.858;9.184;2022-12-07T05:03:35;13.03;;;7.43;;
9218;SDS011;4644;48.858;9.184;2022-12-07T05:06:03;9.53;;;7.17;;
9218;SDS011;4644;48.858;9.184;2022-12-07T05:08:32;10.57;;;7.90;;
9218;SDS011;4644;48.858;9.184;2022-12-07T05:11:00;10.20;;;7.47;;
9218;SDS011;4644;48.858;9.184;2022-12-07T05:13:27;9.63;;;7.23;;
9218;SDS011;4644;48.858;9.184;2022-12-07T05:15:55;8.83;;;6.70;;
9218;SDS011;4644;48.858;9.184;2022-12-07T05:18:22;9.83;;;6.83;;
9218;SDS011;4644;48.858;9.184;2022-12-07T05:20:49;7.60;;;6.07;;
9218;SDS011;4644;48.858;9.184;2022-12-07T05:23:16;8.37;;;6.60;;
9218;SDS011;4644;48.858;9.184;2022-12-07T05:25:45;9.63;;;7.80;;
9218;SDS011;4644;48.858;9.184;2022-12-07T05:28:13;8.57;;;6.67;;
9218;SDS011;4644;48.858;9.184;2022-12-07T05:30:40;10.03;;;7.40;;
9218;SDS011;4644;48.858;9.184;2022-12-07T05:33:07;9.33;;;7.07;;
9218;SDS011;4644;48.858;9.184;2022-12-07T05:35:34;8.43;;;6.97;;
9218;SDS011;4644;48.858;9.184;2022-12-07T05:38:02;12.37;;;7.33;;
9218;SDS011;4644;48.858;9.184;2022-12-07T05:40:29;10.50;;;7.10;;
9218;SDS011;4644;48.858;9.184;2022-12-07T05:42:58;9.43;;;7.43;;
9218;SDS011;4644;48.858;9.184;2022-12-07T05:45:25;8.93;;;6.83;;
9218;SDS011;4644;48.858;9.184;2022-12-07T05:47:52;10.77;;;7.07;;
9218;SDS011;4644;48.858;9.184;2022-12-07T05:50:19;9.90;;;7.63;;
9218;SDS011;4644;48.858;9.184;2022-12-07T05:52:47;10.53;;;7.40;;
9218;SDS011;4644;48.858;9.184;2022-12-07T05:55:18;9.60;;;7.87;;
9218;SDS011;4644;48.858;9.184;2022-12-07T05:57:46;10.60;;;7.17;;
9218;SDS011;4644;48.858;9.184;2022-12-07T06:00:28;11.70;;;8.13;;
9218;SDS011;4644;48.858;9.184;2022-12-07T06:02:55;12.20;;;7.93;;
9218;SDS011;4644;48.858;9.184;2022-12-07T06:05:22;8.77;;;6.73;;
9218;SDS011;4644;48.858;9.184;2022-12-07T06:07:49;10.03;;;7.70;;
9218;SDS011;4644;48.858;9.184;2022-12-07T06:10:16;12.13;;;7.60;;
9218;SDS011;4644;48.858;9.184;2022-12-07T06:12:43;10.60;;;7.37;;
9218;SDS011;4644;48.858;9.184;2022-12-07T06:15:11;11.77;;;7.63;;
9218;SDS011;4644;48.858;9.184;2022-12-07T06:17:40;13.07;;;9.83;;
9218;SDS011;4644;48.858;9.184;2022-12-07T06:20:07;12.83;;;8.87;;
9218;SDS011;4644;48.858;9.184;2022-12-07T06:22:35;13.23;;;7.87;;
9218;SDS011;4644;48.858;9.184;2022-12-07T06:25:02;17.57;;;9.60;;
9218;SDS011;4644;48.858;9.184;2022-12-07T06:27:30;17.60;;;9.20;;
9218;SDS011;4644;48.858;9.184;2022-12-07T06:29:57;11.77;;;8.23;;
9218;SDS011;4644;48.858;9.184;2022-12-07T06:32:31;9.13;;;7.33;;
9218;SDS011;4644;48.858;9.184;2022-12-07T06:35:00;10.53;;;7.50;;
9218;SDS011;4644;48.858;9.184;2022-12-07T06:37:27;10.17;;;6.77;;
9218;SDS011;4644;48.858;9.184;2022-12-07T06:39:54;9.17;;;7.20;;
9218;SDS011;4644;48.858;9.184;2022-12-07T06:42:21;7.63;;;6.40;;
9218;SDS011;4644;48.858;9.184;2022-12-07T06:44:51;11.17;;;6.63;;
9218;SDS011;4644;48.858;9.184;2022-12-07T06:47:18;8.07;;;5.60;;
9218;SDS011;4644;48.858;9.184;2022-12-07T06:49:45;7.43;;;5.63;;
9218;SDS011;4644;48.858;9.184;2022-12-07T06:52:13;8.00;;;5.80;;
9218;SDS011;4644;48.858;9.184;2022-12-07T06:54:43;6.70;;;4.80;;
9218;SDS011;4644;48.858;9.184;2022-12-07T06:57:10;7.00;;;5.63;;
9218;SDS011;4644;48.858;9.184;2022-12-07T06:59:37;9.13;;;5.60;;
9218;SDS011;4644;48.858;9.184;2022-12-07T07:02:04;9.80;;;5.57;;
9218;SDS011;4644;48.858;9.184;2022-12-07T07:04:31;7.43;;;5.27;;
9218;SDS011;4644;48.858;9.184;2022-12-07T07:06:59;7.03;;;5.10;;
9218;SDS011;4644;48.858;9.184;2022-12-07T07:09:27;5.87;;;5.00;;
9218;SDS011;4644;48.858;9.184;2022-12-07T07:11:54;7.70;;;5.40;;
9218;SDS011;4644;48.858;9.184;2022-12-07T07:14:21;8.23;;;5.93;;
9218;SDS011;4644;48.858;9.184;2022-12-07T07:16:48;7.63;;;5.20;;
9218;SDS011;4644;48.858;9.184;2022-12-07T07:19:15;18.80;;;9.07;;
9218;SDS011;4644;48.858;9.184;2022-12-07T07:21:42;21.10;;;9.40;;
9218;SDS011;4644;48.858;9.184;2022-12-07T07:24:09;20.03;;;10.33;;
9218;SDS011;4644;48.858;9.184;2022-12-07T07:26:38;12.03;;;7.33;;
9218;SDS011;4644;48.858;9.184;2022-12-07T07:29:05;13.63;;;6.70;;
9218;SDS011;4644;48.858;9.184;2022-12-07T07:31:32;11.93;;;6.67;;
9218;SDS011;4644;48.858;9.184;2022-12-07T07:34:00;10.60;;;6.43;;
9218;SDS011;4644;48.858;9.184;2022-12-07T07:36:27;8.77;;;5.50;;
9218;SDS011;4644;48.858;9.184;2022-12-07T07:38:54;6.67;;;4.80;;
9218;SDS011;4644;48.858;9.184;2022-12-07T07:41:21;6.50;;;4.87;;
9218;SDS011;4644;48.858;9.184;2022-12-07T07:43:50;9.57;;;5.40;;
9218;SDS011;4644;48.858;9.184;2022-12-07T07:46:17;7.60;;;5.13;;
9218;SDS011;4644;48.858;9.184;2022-12-07T07:48:43;7.43;;;5.10;;
9218;SDS011;4644;48.858;9.184;2022-12-07T07:51:10;6.53;;;5.03;;
9218;SDS011;4644;48.858;9.184;2022-12-07T07:53:37;8.10;;;4.83;;
9218;SDS011;4644;48.858;9.184;2022-12-07T07:56:04;6.03;;;4.90;;
9218;SDS011;4644;48.858;9.184;2022-12-07T07:58:31;9.43;;;5.00;;
9218;SDS011;4644;48.858;9.184;2022-12-07T08:01:04;9.50;;;4.73;;
9218;SDS011;4644;48.858;9.184;2022-12-07T08:03:31;9.07;;;5.50;;
9218;SDS011;4644;48.858;9.184;2022-12-07T08:05:58;7.27;;;4.90;;
9218;SDS011;4644;48.858;9.184;2022-12-07T08:08:25;6.77;;;5.17;;
9218;SDS011;4644;48.858;9.184;2022-12-07T08:10:52;6.93;;;5.93;;
9218;SDS011;4644;48.858;9.184;2022-12-07T08:13:19;7.47;;;4.77;;
9218;SDS011;4644;48.858;9.184;2022-12-07T08:15:47;6.53;;;5.20;;
9218;SDS011;4644;48.858;9.184;2022-12-07T08:18:15;6.23;;;5.03;;
9218;SDS011;4644;48.858;9.184;2022-12-07T08:20:42;7.10;;;5.10;;
9218;SDS011;4644;48.858;9.184;2022-12-07T08:23:10;8.47;;;5.47;;
9218;SDS011;4644;48.858;9.184;2022-12-07T08:25:37;8.93;;;5.07;;
9218;SDS011;4644;48.858;9.184;2022-12-07T08:28:05;8.23;;;4.97;;
9218;SDS011;4644;48.858;9.184;2022-12-07T08:30:33;8.67;;;4.63;;
9218;SDS011;4644;48.858;9.184;2022-12-07T08:33:00;5.83;;;4.50;;
9218;SDS011;4644;48.858;9.184;2022-12-07T08:35:28;5.27;;;4.43;;
9218;SDS011;4644;48.858;9.184;2022-12-07T08:37:55;5.90;;;4.23;;
9218;SDS011;4644;48.858;9.184;2022-12-07T08:40:23;9.03;;;5.40;;
9218;SDS011;4644;48.858;9.184;2022-12-07T08:42:50;5.83;;;4.27;;
9218;SDS011;4644;48.858;9.184;2022-12-07T08:45:18;17.90;;;9.60;;
9218;SDS011;4644;48.858;9.184;2022-12-07T08:47:47;8.23;;;5.13;;
9218;SDS011;4644;48.858;9.184;2022-12-07T08:50:17;5.37;;;4.13;;
9218;SDS011;4644;48.858;9.184;2022-12-07T08:52:45;6.20;;;5.07;;
9218;SDS011;4644;48.858;9.184;2022-12-07T08:55:16;10.43;;;5.20;;
9218;SDS011;4644;48.858;9.184;2022-12-07T08:57:43;7.77;;;5.40;;
9218;SDS011;4644;48.858;9.184;2022-12-07T09:00:11;6.47;;;4.53;;
9218;SDS011;4644;48.858;9.184;2022-12-07T09:02:39;7.70;;;4.87;;
9218;SDS011;4644;48.858;9.184;2022-12-07T09:05:08;6.10;;;4.83;;
9218;SDS011;4644;48.858;9.184;2022-12-07T09:07:35;6.27;;;4.57;;
9218;SDS011;4644;48.858;9.184;2022-12-07T09:10:05;6.17;;;4.67;;
9218;SDS011;4644;48.858;9.184;2022-12-07T09:12:33;8.93;;;4.97;;
9218;SDS011;4644;48.858;9.184;2022-12-07T09:15:00;4.70;;;4.20;;
9218;SDS011;4644;48.858;9.184;2022-12-07T09:17:27;8.90;;;4.83;;
9218;SDS011;4644;48.858;9.184;2022-12-07T09:19:57;5.03;;;4.13;;
9218;SDS011;4644;48.858;9.184;2022-12-07T09:22:28;5.97;;;4.20;;
9218;SDS011;4644;48.858;9.184;2022-12-07T09:24:55;4.90;;;4.10;;
9218;SDS011;4644;48.858;9.184;2022-12-07T09:27:24;4.67;;;4.13;;
9218;SDS011;4644;48.858;9.184;2022-12-07T09:29:51;6.10;;;4.43;;
9218;SDS011;4644;48.858;9.184;2022-12-07T09:32:18;6.97;;;3.90;;
9218;SDS011;4644;48.858;9.184;2022-12-07T09:34:45;6.03;;;4.30;;
9218;SDS011;4644;48.858;9.184;2022-12-07T09:37:12;6.30;;;3.60;;
9218;SDS011;4644;48.858;9.184;2022-12-07T09:39:40;4.53;;;3.40;;
9218;SDS011;4644;48.858;9.184;2022-12-07T09:42:07;4.23;;;3.33;;
9218;SDS011;4644;48.858;9.184;2022-12-07T09:44:39;4.63;;;3.50;;
9218;SDS011;4644;48.858;9.184;2022-12-07T09:47:07;3.90;;;3.10;;
9218;SDS011;4644;48.858;9.184;2022-12-07T09:49:36;5.30;;;2.87;;
9218;SDS011;4644;48.858;9.184;2022-12-07T09:52:16;3.33;;;3.03;;
9218;SDS011;4644;48.858;9.184;2022-12-07T09:54:46;5.63;;;3.37;;
9218;SDS011;4644;48.858;9.184;2022-12-07T09:57:15;4.07;;;3.50;;
9218;SDS011;4644;48.858;9.184;2022-12-07T09:59:45;3.80;;;3.20;;
9218;SDS011;4644;48.858;9.184;2022-12-07T10:02:23;5.67;;;3.60;;
9218;SDS011;4644;48.858;9.184;2022-12-07T10:04:57;4.60;;;3.47;;
9218;SDS011;4644;48.858;9.184;2022-12-07T10:07:25;7.37;;;4.10;;
9218;SDS011;4644;48.858;9.184;2022-12-07T10:09:52;4.37;;;3.70;;
9218;SDS011;4644;48.858;9.184;2022-12-07T10:12:20;5.03;;;3.47;;
9218;SDS011;4644;48.858;9.184;2022-12-07T10:14:55;4.37;;;3.97;;
9218;SDS011;4644;48.858;9.184;2022-12-07T10:17:30;4.70;;;3.30;;
9218;SDS011;4644;48.858;9.184;2022-12-07T10:20:10;4.73;;;4.00;;
9218;SDS011;4644;48.858;9.184;2022-12-07T10:23:00;5.23;;;3.80;;
9218;SDS011;4644;48.858;9.184;2022-12-07T10:25:30;4.27;;;3.87;;
9218;SDS011;4644;48.858;9.184;2022-12-07T10:27:59;4.80;;;3.63;;
9218;SDS011;4644;48.858;9.184;2022-12-07T10:30:47;5.27;;;3.50;;
9218;SDS011;4644;48.858;9.184;2022-12-07T10:33:29;6.93;;;3.83;;
9218;SDS011;4644;48.858;9.184;2022-12-07T10:35:58;6.43;;;3.50;;
9218;SDS011;4644;48.858;9.184;2022-12-07T10:38:27;4.87;;;3.00;;
9218;SDS011;4644;48.858;9.184;2022-12-07T10:41:03;5.20;;;3.03;;
9218;SDS011;4644;48.858;9.184;2022-12-07T10:43:32;5.30;;;3.30;;
9218;SDS011;4644;48.858;9.184;2022-12-07T10:46:09;3.73;;;3.33;;
9218;SDS011;4644;48.858;9.184;2022-12-07T10:49:00;3.83;;;2.60;;
9218;SDS011;4644;48.858;9.184;2022-12-07T10:51:35;3.20;;;2.60;;
9218;SDS011;4644;48.858;9.184;2022-12-07T10:54:09;3.23;;;2.90;;
9218;SDS011;4644;48.858;9.184;2022-12-07T10:56:53;2.73;;;2.53;;
9218;SDS011;4644;48.858;9.184;2022-12-07T11:05:41;3.10;;;2.80;;
9218;SDS011;4644;48.858;9.184;2022-12-07T11:08:18;4.23;;;3.17;;
9218;SDS011;4644;48.858;9.184;2022-12-07T11:10:58;4.60;;;3.23;;
9218;SDS011;4644;48.858;9.184;2022-12-07T11:13:34;4.13;;;3.73;;
9218;SDS011;4644;48.858;9.184;2022-12-07T11:16:19;3.87;;;3.47;;
9218;SDS011;4644;48.858;9.184;2022-12-07T11:18:53;4.43;;;2.87;;
9218;SDS011;4644;48.858;9.184;2022-12-07T11:21:34;3.43;;;3.13;;
9218;SDS011;4644;48.858;9.184;2022-12-07T11:24:10;4.03;;;3.20;;
9218;SDS011;4644;48.858;9.184;2022-12-07T11:26:46;4.73;;;3.60;;
9218;SDS011;4644;48.858;9.184;2022-12-07T11:32:28;6.30;;;3.90;;
9218;SDS011;4644;48.858;9.184;2022-12-07T11:35:11;4.80;;;3.87;;
9218;SDS011;4644;48.858;9.184;2022-12-07T11:37:46;6.37;;;4.50;;
9218;SDS011;4644;48.858;9.184;2022-12-07T11:40:17;5.77;;;4.60;;
9218;SDS011;4644;48.858;9.184;2022-12-07T11:42:51;6.63;;;4.50;;
9218;SDS011;4644;48.858;9.184;2022-12-07T11:45:24;6.97;;;5.00;;
9218;SDS011;4644;48.858;9.184;2022-12-07T11:47:55;6.77;;;5.10;;
9218;SDS011;4644;48.858;9.184;2022-12-07T11:50:27;7.43;;;5.03;;
9218;SDS011;4644;48.858;9.184;2022-12-07T11:53:03;7.13;;;5.70;;
9218;SDS011;4644;48.858;9.184;2022-12-07T11:55:40;7.93;;;5.33;;
9218;SDS011;4644;48.858;9.184;2022-12-07T11:58:18;10.70;;;5.43;;
9218;SDS011;4644;48.858;9.184;2022-12-07T12:01:11;7.03;;;5.23;;
9218;SDS011;4644;48.858;9.184;2022-12-07T12:03:46;9.50;;;5.60;;
9218;SDS011;4644;48.858;9.184;2022-12-07T12:06:15;7.40;;;5.40;;
9218;SDS011;4644;48.858;9.184;2022-12-07T12:08:46;7.07;;;5.87;;
9218;SDS011;4644;48.858;9.184;2022-12-07T12:11:19;7.70;;;5.57;;
9218;SDS011;4644;48.858;9.184;2022-12-07T12:14:09;7.40;;;5.43;;
9218;SDS011;4644;48.858;9.184;2022-12-07T12:16:54;7.93;;;6.10;;
9218;SDS011;4644;48.858;9.184;2022-12-07T12:19:40;6.67;;;5.57;;
9218;SDS011;4644;48.858;9.184;2022-12-07T12:22:11;6.73;;;5.17;;
9218;SDS011;4644;48.858;9.184;2022-12-07T12:24:43;8.53;;;5.20;;
9218;SDS011;4644;48.858;9.184;2022-12-07T12:27:15;5.87;;;5.03;;
9218;SDS011;4644;48.858;9.184;2022-12-07T12:29:50;7.00;;;4.93;;
9218;SDS011;4644;48.858;9.184;2022-12-07T12:32:20;5.53;;;4.60;;
9218;SDS011;4644;48.858;9.184;2022-12-07T12:35:00;6.07;;;4.47;;
9218;SDS011;4644;48.858;9.184;2022-12-07T12:37:45;6.57;;;4.60;;
9218;SDS011;4644;48.858;9.184;2022-12-07T12:49:14;6.27;;;4.93;;
9218;SDS011;4644;48.858;9.184;2022-12-07T12:52:02;7.83;;;4.70;;
9218;SDS011;4644;48.858;9.184;2022-12-07T12:55:13;6.13;;;5.23;;
9218;SDS011;4644;48.858;9.184;2022-12-07T12:57:47;8.13;;;5.67;;
9218;SDS011;4644;48.858;9.184;2022-12-07T13:00:40;7.73;;;5.77;;
9218;SDS011;4644;48.858;9.184;2022-12-07T13:03:16;7.13;;;5.70;;
9218;SDS011;4644;48.858;9.184;2022-12-07T13:05:57;6.37;;;5.03;;
9218;SDS011;4644;48.858;9.184;2022-12-07T13:08:44;8.03;;;5.83;;
9218;SDS011;4644;48.858;9.184;2022-12-07T13:11:17;8.17;;;5.87;;
9218;SDS011;4644;48.858;9.184;2022-12-07T13:13:47;7.20;;;5.77;;
9218;SDS011;4644;48.858;9.184;2022-12-07T13:22:40;8.10;;;6.83;;
9218;SDS011;4644;48.858;9.184;2022-12-07T13:25:21;12.03;;;6.37;;
9218;SDS011;4644;48.858;9.184;2022-12-07T13:28:20;8.27;;;6.37;;
9218;SDS011;4644;48.858;9.184;2022-12-07T13:31:00;8.70;;;6.17;;
9218;SDS011;4644;48.858;9.184;2022-12-07T13:33:42;7.90;;;5.70;;
9218;SDS011;4644;48.858;9.184;2022-12-07T13:36:12;8.13;;;6.63;;
9218;SDS011;4644;48.858;9.184;2022-12-07T13:38:49;9.43;;;7.37;;
9218;SDS011;4644;48.858;9.184;2022-12-07T13:41:18;10.30;;;7.00;;
9218;SDS011;4644;48.858;9.184;2022-12-07T13:43:48;9.90;;;7.50;;
9218;SDS011;4644;48.858;9.184;2022-12-07T13:46:20;12.03;;;8.00;;
9218;SDS011;4644;48.858;9.184;2022-12-07T13:48:53;11.27;;;7.37;;
9218;SDS011;4644;48.858;9.184;2022-12-07T13:51:25;11.13;;;8.20;;
9218;SDS011;4644;48.858;9.184;2022-12-07T13:54:16;10.80;;;7.83;;
9218;SDS011;4644;48.858;9.184;2022-12-07T13:56:46;10.20;;;7.30;;
9218;SDS011;4644;48.858;9.184;2022-12-07T13:59:17;10.17;;;7.83;;
9218;SDS011;4644;48.858;9.184;2022-12-07T14:01:48;10.70;;;8.10;;
9218;SDS011;4644;48.858;9.184;2022-12-07T14:07:17;8.23;;;6.67;;
9218;SDS011;4644;48.858;9.184;2022-12-07T14:09:53;8.07;;;6.77;;
9218;SDS011;4644;48.858;9.184;2022-12-07T14:12:25;8.20;;;6.40;;
9218;SDS011;4644;48.858;9.184;2022-12-07T14:14:53;8.87;;;6.80;;
9218;SDS011;4644;48.858;9.184;2022-12-07T14:17:23;11.37;;;7.33;;
9218;SDS011;4644;48.858;9.184;2022-12-07T14:19:51;10.03;;;7.50;;
9218;SDS011;4644;48.858;9.184;2022-12-07T14:22:30;11.97;;;7.90;;
9218;SDS011;4644;48.858;9.184;2022-12-07T14:27:53;9.83;;;6.63;;
9218;SDS011;4644;48.858;9.184;2022-12-07T14:30:23;11.37;;;6.87;;
9218;SDS011;4644;48.858;9.184;2022-12-07T14:32:55;10.07;;;7.17;;
9218;SDS011;4644;48.858;9.184;2022-12-07T14:35:25;11.93;;;6.73;;
9218;SDS011;4644;48.858;9.184;2022-12-07T14:37:52;12.40;;;7.53;;
9218;SDS011;4644;48.858;9.184;2022-12-07T14:40:20;10.83;;;7.93;;
9218;SDS011;4644;48.858;9.184;2022-12-07T14:42:49;10.43;;;8.07;;
9218;SDS011;4644;48.858;9.184;2022-12-07T14:45:19;10.67;;;7.70;;
9218;SDS011;4644;48.858;9.184;2022-12-07T14:47:47;10.63;;;7.63;;
9218;SDS011;4644;48.858;9.184;2022-12-07T14:50:17;10.90;;;7.43;;
9218;SDS011;4644;48.858;9.184;2022-12-07T14:52:46;12.70;;;8.57;;
9218;SDS011;4644;48.858;9.184;2022-12-07T14:55:18;11.40;;;7.97;;
9218;SDS011;4644;48.858;9.184;2022-12-07T14:57:50;11.60;;;8.00;;
9218;SDS011;4644;48.858;9.184;2022-12-07T15:00:17;13.00;;;8.33;;
9218;SDS011;4644;48.858;9.184;2022-12-07T15:02:46;10.37;;;8.00;;
9218;SDS011;4644;48.858;9.184;2022-12-07T15:05:14;10.87;;;7.50;;
9218;SDS011;4644;48.858;9.184;2022-12-07T15:07:44;10.83;;;7.60;;
9218;SDS011;4644;48.858;9.184;2022-12-07T15:10:13;10.50;;;7.37;;
9218;SDS011;4644;48.858;9.184;2022-12-07T15:12:44;11.07;;;7.80;;
9218;SDS011;4644;48.858;9.184;2022-12-07T15:15:11;10.50;;;7.80;;
9218;SDS011;4644;48.858;9.184;2022-12-07T15:17:38;9.87;;;7.33;;
9218;SDS011;4644;48.858;9.184;2022-12-07T15:20:07;13.47;;;7.23;;
9218;SDS011;4644;48.858;9.184;2022-12-07T15:22:38;11.63;;;7.87;;
9218;SDS011;4644;48.858;9.184;2022-12-07T15:25:05;12.03;;;7.73;;
9218;SDS011;4644;48.858;9.184;2022-12-07T15:27:33;12.33;;;7.40;;
9218;SDS011;4644;48.858;9.184;2022-12-07T15:30:00;12.07;;;7.67;;
9218;SDS011;4644;48.858;9.184;2022-12-07T15:32:27;13.53;;;8.30;;
9218;SDS011;4644;48.858;9.184;2022-12-07T15:34:54;8.83;;;6.90;;
9218;SDS011;4644;48.858;9.184;2022-12-07T15:37:21;10.93;;;7.53;;
9218;SDS011;4644;48.858;9.184;2022-12-07T15:39:50;12.93;;;8.27;;
9218;SDS011;4644;48.858;9.184;2022-12-07T15:42:17;10.33;;;7.60;;
9218;SDS011;4644;48.858;9.184;2022-12-07T15:44:44;13.00;;;8.43;;
9218;SDS011;4644;48.858;9.184;2022-12-07T15:47:28;11.43;;;7.70;;
9218;SDS011;4644;48.858;9.184;2022-12-07T15:49:55;11.77;;;8.40;;
9218;SDS011;4644;48.858;9.184;2022-12-07T15:52:22;12.53;;;7.53;;
9218;SDS011;4644;48.858;9.184;2022-12-07T15:54:51;12.73;;;7.93;;
9218;SDS011;4644;48.858;9.184;2022-12-07T15:57:18;10.63;;;7.57;;
9218;SDS011;4644;48.858;9.184;2022-12-07T15:59:45;10.90;;;7.97;;
9218;SDS011;4644;48.858;9.184;2022-12-07T16:02:12;9.97;;;7.47;;
9218;SDS011;4644;48.858;9.184;2022-12-07T16:04:39;10.00;;;7.63;;
9218;SDS011;4644;48.858;9.184;2022-12-07T16:07:06;10.37;;;7.40;;